createdAt,value
2022-11-30T00:01:36.070Z,68.60
2022-11-30T00:04:04.121Z,61.60
2022-11-30T00:06:32.099Z,52.40
2022-11-30T00:09:00.253Z,63.20
2022-11-30T00:11:28.705Z,62.80
2022-11-30T00:13:58.919Z,64.80
2022-11-30T00:16:27.684Z,57.50
2022-11-30T00:18:55.826Z,63.50
2022-11-30T00:21:26.158Z,60.80
2022-11-30T00:23:55.162Z,57.80
2022-11-30T00:26:23.359Z,59.10
2022-11-30T00:28:51.994Z,54.40
2022-11-30T00:31:21.087Z,58.30
2022-11-30T00:33:49.208Z,58.80
2022-11-30T00:36:22.092Z,61.70
2022-11-30T00:38:52.011Z,52.90
2022-11-30T00:41:21.306Z,57.60
2022-11-30T00:43:49.216Z,61.60
2022-11-30T00:46:17.423Z,57.70
2022-11-30T00:48:45.645Z,55.80
2022-11-30T00:51:14.384Z,55.20
2022-11-30T00:53:42.696Z,57.80
2022-11-30T00:56:11.305Z,55.80
2022-11-30T00:58:40.166Z,60.60
2022-11-30T01:01:08.782Z,62.30
2022-11-30T01:03:37.889Z,60.90
2022-11-30T01:06:08.323Z,55.60
2022-11-30T01:08:37.354Z,51.30
2022-11-30T01:11:14.880Z,52.40
2022-11-30T01:13:42.848Z,57.60
2022-11-30T01:16:15.680Z,52.50
2022-11-30T01:18:44.559Z,48.50
2022-11-30T01:21:16.389Z,56.60
2022-11-30T01:23:45.468Z,54.70
2022-11-30T01:26:14.794Z,52.20
2022-11-30T01:28:44.297Z,48.10
2022-11-30T01:31:14.657Z,51.60
2022-11-30T01:33:43.301Z,49.80
2022-11-30T01:36:18.060Z,49.50
2022-11-30T01:38:51.344Z,54.50
2022-11-30T01:41:23.563Z,52.40
2022-11-30T01:44:19.778Z,52.70
2022-11-30T01:47:08.972Z,56.70
2022-11-30T01:49:41.557Z,58.40
2022-11-30T01:52:13.853Z,55.90
2022-11-30T01:54:51.921Z,55.70
2022-11-30T01:57:38.847Z,56.90
2022-11-30T02:00:11.209Z,60.30
2022-11-30T02:02:47.994Z,57.10
2022-11-30T02:05:18.207Z,50.90
2022-11-30T02:07:46.475Z,56.60
2022-11-30T02:10:18.214Z,58.50
2022-11-30T02:13:08.244Z,58.60
2022-11-30T02:16:08.436Z,49.00
2022-11-30T02:19:06.392Z,50.10
2022-11-30T02:21:46.422Z,44.40
2022-11-30T02:24:52.151Z,44.80
2022-11-30T02:27:43.882Z,45.90
2022-11-30T02:30:16.951Z,47.20
2022-11-30T02:32:51.882Z,43.10
2022-11-30T02:35:25.135Z,45.20
2022-11-30T02:37:56.380Z,45.70
2022-11-30T02:40:24.530Z,47.50
2022-11-30T02:42:55.954Z,48.00
2022-11-30T02:45:49.195Z,50.00
2022-11-30T02:48:24.073Z,50.70
2022-11-30T02:50:57.819Z,46.20
2022-11-30T02:53:26.274Z,48.60
2022-11-30T02:55:54.863Z,48.20
2022-11-30T02:58:22.946Z,52.90
2022-11-30T03:00:50.930Z,47.70
2022-11-30T03:03:18.897Z,49.80
2022-11-30T03:05:48.092Z,51.70
2022-11-30T03:08:16.004Z,50.20
2022-11-30T03:10:44.059Z,43.20
2022-11-30T03:13:12.282Z,58.10
2022-11-30T03:15:40.294Z,64.70
2022-11-30T03:18:08.277Z,73.50
2022-11-30T03:20:43.543Z,61.50
2022-11-30T03:23:11.817Z,64.50
2022-11-30T03:25:39.782Z,81.50
2022-11-30T03:28:08.058Z,68.80
2022-11-30T03:30:36.060Z,61.90
2022-11-30T03:33:05.298Z,61.30
2022-11-30T03:35:33.283Z,58.40
2022-11-30T03:38:03.474Z,61.10
2022-11-30T03:40:31.488Z,66.80
2022-11-30T03:43:00.003Z,71.00
2022-11-30T03:45:28.142Z,66.40
2022-11-30T03:47:56.387Z,73.10
2022-11-30T03:50:24.338Z,81.60
2022-11-30T03:52:52.347Z,90.70
2022-11-30T03:55:20.231Z,89.20
2022-11-30T03:57:48.145Z,85.30
2022-11-30T04:00:18.130Z,84.60
2022-11-30T04:02:47.277Z,79.30
2022-11-30T04:05:15.371Z,81.50
2022-11-30T04:07:43.528Z,73.70
2022-11-30T04:10:11.783Z,77.00
2022-11-30T04:12:39.793Z,82.70
2022-11-30T04:15:09.147Z,84.00
2022-11-30T04:17:37.084Z,83.30
2022-11-30T04:20:05.872Z,82.40
2022-11-30T04:22:34.104Z,103.20
2022-11-30T04:25:02.043Z,88.10
2022-11-30T04:27:30.014Z,86.00
2022-11-30T04:29:57.989Z,90.70
2022-11-30T04:32:25.949Z,78.90
2022-11-30T04:34:55.294Z,89.50
2022-11-30T04:37:23.199Z,91.20
2022-11-30T04:39:51.275Z,86.70
2022-11-30T04:42:19.328Z,85.60
2022-11-30T04:44:47.506Z,86.70
2022-11-30T04:47:15.852Z,92.80
2022-11-30T04:49:43.868Z,107.40
2022-11-30T04:52:12.833Z,109.80
2022-11-30T04:54:40.773Z,103.80
2022-11-30T04:57:09.297Z,96.90
2022-11-30T04:59:37.437Z,92.50
2022-11-30T05:02:05.491Z,93.50
2022-11-30T05:04:33.659Z,93.50
2022-11-30T05:07:01.627Z,89.50
2022-11-30T05:09:29.602Z,92.30
2022-11-30T05:11:57.627Z,82.60
2022-11-30T05:14:27.199Z,84.00
2022-11-30T05:16:55.185Z,76.00
2022-11-30T05:19:23.089Z,71.70
2022-11-30T05:21:51.113Z,90.60
2022-11-30T05:24:19.972Z,92.40
2022-11-30T05:26:47.902Z,83.30
2022-11-30T05:29:15.844Z,72.20
2022-11-30T05:31:43.895Z,74.50
2022-11-30T05:34:12.098Z,71.80
2022-11-30T05:36:40.144Z,73.20
2022-11-30T05:39:08.621Z,86.00
2022-11-30T05:41:37.639Z,84.00
2022-11-30T05:44:06.877Z,58.00
2022-11-30T05:46:38.327Z,49.40
2022-11-30T05:49:08.770Z,40.20
2022-11-30T05:51:36.769Z,43.20
2022-11-30T05:54:04.867Z,41.70
2022-11-30T05:56:33.156Z,51.10
2022-11-30T05:59:01.135Z,45.20
2022-11-30T06:01:30.089Z,45.30
2022-11-30T06:03:58.209Z,46.50
2022-11-30T06:06:26.236Z,52.70
2022-11-30T06:08:54.622Z,94.50
2022-11-30T06:11:22.671Z,102.60
2022-11-30T06:13:50.739Z,102.00
2022-11-30T06:16:19.051Z,92.20
2022-11-30T06:18:47.214Z,93.10
2022-11-30T06:21:19.636Z,94.90
2022-11-30T06:23:50.774Z,88.10
2022-11-30T06:26:19.336Z,94.60
2022-11-30T06:28:48.868Z,89.20
2022-11-30T06:31:18.430Z,86.20
2022-11-30T06:33:46.396Z,78.40
2022-11-30T06:36:14.454Z,80.00
2022-11-30T06:38:42.921Z,82.00
2022-11-30T06:41:12.622Z,74.80
2022-11-30T06:43:41.188Z,77.80
2022-11-30T06:46:09.722Z,78.40
2022-11-30T06:48:38.559Z,80.90
2022-11-30T06:51:09.940Z,78.70
2022-11-30T06:53:38.313Z,78.80
2022-11-30T06:56:10.386Z,85.40
2022-11-30T06:58:40.174Z,82.70
2022-11-30T07:01:15.436Z,82.80
2022-11-30T07:03:44.670Z,87.00
2022-11-30T07:06:14.176Z,77.00
2022-11-30T07:08:43.446Z,78.90
2022-11-30T07:11:12.813Z,84.60
2022-11-30T07:13:41.120Z,87.60
2022-11-30T07:16:11.572Z,75.90
2022-11-30T07:18:42.693Z,80.90
2022-11-30T07:21:12.658Z,85.50
2022-11-30T07:23:58.983Z,85.80
2022-11-30T07:26:28.978Z,94.80
2022-11-30T07:28:59.146Z,92.60
2022-11-30T07:31:29.943Z,92.70
2022-11-30T07:33:59.547Z,94.10
2022-11-30T07:36:27.995Z,81.50
2022-11-30T07:38:56.057Z,78.70
2022-11-30T07:41:26.332Z,84.00
2022-11-30T07:43:55.818Z,87.10
2022-11-30T07:46:24.000Z,83.00
2022-11-30T07:48:53.446Z,76.70
2022-11-30T07:51:22.999Z,85.20
2022-11-30T07:53:51.563Z,82.00
2022-11-30T07:56:20.858Z,79.00
2022-11-30T07:58:58.185Z,75.90
2022-11-30T08:01:29.274Z,85.10
2022-11-30T08:04:14.345Z,72.60
2022-11-30T08:06:42.849Z,72.40
2022-11-30T08:09:14.266Z,84.90
2022-11-30T08:11:46.055Z,77.10
2022-11-30T08:14:14.088Z,68.20
2022-11-30T08:16:44.302Z,63.80
2022-11-30T08:19:12.292Z,62.30
2022-11-30T08:21:41.125Z,62.80
2022-11-30T08:24:11.963Z,54.60
2022-11-30T08:26:40.310Z,54.60
2022-11-30T08:29:11.084Z,50.50
2022-11-30T08:31:39.768Z,53.20
2022-11-30T08:34:10.751Z,51.00
2022-11-30T08:36:40.665Z,52.20
2022-11-30T08:39:09.290Z,53.10
2022-11-30T08:41:39.281Z,48.60
2022-11-30T08:44:07.496Z,50.50
2022-11-30T08:46:51.656Z,58.10
2022-11-30T08:52:19.170Z,55.20
2022-11-30T08:54:48.592Z,49.50
2022-11-30T08:57:19.736Z,54.00
2022-11-30T08:59:48.122Z,56.80
2022-11-30T09:02:19.912Z,61.90
2022-11-30T09:04:51.233Z,53.50
2022-11-30T09:07:20.226Z,52.70
2022-11-30T09:09:49.981Z,53.90
2022-11-30T09:12:17.979Z,54.10
2022-11-30T09:14:53.995Z,55.90
2022-11-30T09:17:25.717Z,50.40
2022-11-30T09:19:55.133Z,58.70
2022-11-30T09:22:23.848Z,61.30
2022-11-30T09:24:51.976Z,57.70
2022-11-30T09:27:22.066Z,55.90
2022-11-30T09:29:51.482Z,69.10
2022-11-30T09:32:19.541Z,62.90
2022-11-30T09:34:50.608Z,65.40
2022-11-30T09:37:20.264Z,67.20
2022-11-30T09:39:48.422Z,65.20
2022-11-30T09:42:29.408Z,71.60
2022-11-30T09:45:20.721Z,67.30
2022-11-30T09:48:03.879Z,81.20
2022-11-30T09:50:39.146Z,67.20
2022-11-30T09:55:44.883Z,66.60
2022-11-30T09:58:29.963Z,63.30
2022-11-30T10:01:03.661Z,61.50
2022-11-30T10:03:36.594Z,60.70
2022-11-30T10:06:21.079Z,64.00
2022-11-30T10:09:03.484Z,66.10
2022-11-30T10:12:04.669Z,68.70
2022-11-30T10:14:48.172Z,65.60
2022-11-30T10:17:16.500Z,66.30
2022-11-30T10:20:15.547Z,56.50
2022-11-30T10:23:19.749Z,64.30
2022-11-30T10:25:56.182Z,68.70
2022-11-30T10:28:47.934Z,59.90
2022-11-30T10:31:39.512Z,63.20
2022-11-30T10:34:35.795Z,54.40
2022-11-30T10:37:12.405Z,47.00
2022-11-30T10:39:56.458Z,45.00
2022-11-30T10:42:50.761Z,46.40
2022-11-30T10:45:24.423Z,49.50
2022-11-30T10:48:21.523Z,48.50
2022-11-30T10:50:52.437Z,44.00
2022-11-30T10:53:22.521Z,46.90
2022-11-30T10:56:04.455Z,47.60
2022-11-30T10:58:41.273Z,44.70
2022-11-30T11:01:28.963Z,52.20
2022-11-30T11:04:17.805Z,47.80
2022-11-30T11:06:58.492Z,47.00
2022-11-30T11:09:27.518Z,52.90
2022-11-30T11:12:21.711Z,52.30
2022-11-30T11:15:09.500Z,48.30
2022-11-30T11:17:37.691Z,56.00
2022-11-30T11:20:31.306Z,45.60
2022-11-30T11:22:59.862Z,53.50
2022-11-30T11:25:39.339Z,51.30
2022-11-30T11:28:18.878Z,51.30
2022-11-30T11:30:47.083Z,51.60
2022-11-30T11:33:24.141Z,55.70
2022-11-30T11:35:54.960Z,51.40
2022-11-30T11:38:41.770Z,52.50
2022-11-30T11:41:35.202Z,56.80
2022-11-30T11:44:22.670Z,49.80
2022-11-30T11:46:57.808Z,51.20
2022-11-30T11:52:10.856Z,49.70
2022-11-30T11:54:47.544Z,50.20
2022-11-30T11:57:20.088Z,42.40
2022-11-30T11:59:51.613Z,43.10
2022-11-30T12:03:04.770Z,47.50
2022-11-30T12:05:54.198Z,45.10
2022-11-30T12:08:28.191Z,43.80
2022-11-30T12:11:26.852Z,43.50
2022-11-30T12:13:55.452Z,40.70
2022-11-30T12:16:24.703Z,47.10
2022-11-30T12:19:08.151Z,42.20
2022-11-30T12:21:52.287Z,36.90
2022-11-30T12:24:28.737Z,40.00
2022-11-30T12:27:24.214Z,40.80
2022-11-30T12:29:52.590Z,39.30
2022-11-30T12:32:27.209Z,34.40
2022-11-30T12:35:10.760Z,41.20
2022-11-30T12:38:10.240Z,37.90
2022-11-30T12:40:53.961Z,38.80
2022-11-30T12:43:34.114Z,34.70
2022-11-30T12:46:15.556Z,38.20
2022-11-30T12:49:12.091Z,39.10
2022-11-30T12:52:07.891Z,34.30
2022-11-30T12:54:56.740Z,44.40
2022-11-30T12:57:42.340Z,37.60
2022-11-30T13:00:19.086Z,35.60
2022-11-30T13:03:04.836Z,34.10
2022-11-30T13:05:58.554Z,35.60
2022-11-30T13:08:34.960Z,31.30
2022-11-30T13:11:08.586Z,31.00
2022-11-30T13:13:43.412Z,35.80
2022-11-30T13:16:11.894Z,33.30
2022-11-30T13:18:42.487Z,32.10
2022-11-30T13:21:30.704Z,31.80
2022-11-30T13:24:10.104Z,34.90
2022-11-30T13:27:08.081Z,30.90
2022-11-30T13:30:03.152Z,31.60
2022-11-30T13:32:57.573Z,32.10
2022-11-30T13:35:29.440Z,25.80
2022-11-30T13:38:36.494Z,29.20
2022-11-30T13:41:09.378Z,40.90
2022-11-30T13:43:45.796Z,31.70
2022-11-30T13:46:21.034Z,37.30
2022-11-30T13:48:49.897Z,29.30
2022-11-30T13:51:36.703Z,32.80
2022-11-30T13:54:41.615Z,25.10
2022-11-30T13:57:35.760Z,30.30
2022-11-30T14:00:33.058Z,34.00
2022-11-30T14:06:56.606Z,27.70
2022-11-30T14:09:40.032Z,29.20
2022-11-30T14:12:35.033Z,27.40
2022-11-30T14:15:38.472Z,32.60
2022-11-30T14:18:11.848Z,27.40
2022-11-30T14:21:15.003Z,26.80
2022-11-30T14:23:50.540Z,25.60
2022-11-30T14:26:28.333Z,36.70
2022-11-30T14:29:02.458Z,34.30
2022-11-30T14:32:12.539Z,39.40
2022-11-30T14:34:46.506Z,42.60
2022-11-30T14:37:27.560Z,43.60
2022-11-30T14:39:56.895Z,50.40
2022-11-30T14:42:30.540Z,49.40
2022-11-30T14:45:00.168Z,46.80
2022-11-30T14:47:34.881Z,39.70
2022-11-30T14:50:06.304Z,36.80
2022-11-30T14:52:54.494Z,33.40
2022-11-30T14:55:34.296Z,37.50
2022-11-30T14:58:23.505Z,42.50
2022-11-30T15:00:52.067Z,42.40
2022-11-30T15:03:38.898Z,45.20
2022-11-30T15:06:08.788Z,42.50
2022-11-30T15:08:48.360Z,41.10
2022-11-30T15:11:17.913Z,35.20
2022-11-30T15:13:55.994Z,32.90
2022-11-30T15:16:25.968Z,31.50
2022-11-30T15:18:56.654Z,30.10
2022-11-30T15:21:28.821Z,28.10
2022-11-30T15:24:01.595Z,31.60
2022-11-30T15:26:48.921Z,28.60
2022-11-30T15:29:26.567Z,32.40
2022-11-30T15:31:58.495Z,38.50
2022-11-30T15:34:57.650Z,44.60
2022-11-30T15:37:38.573Z,30.00
2022-11-30T15:40:09.977Z,37.10
2022-11-30T15:42:40.707Z,32.80
2022-11-30T15:45:31.791Z,40.30
2022-11-30T15:48:02.765Z,39.10
2022-11-30T15:50:37.342Z,35.70
2022-11-30T15:53:23.224Z,34.90
2022-11-30T15:55:55.408Z,36.50
2022-11-30T15:58:45.900Z,36.30
2022-11-30T16:01:25.194Z,30.90
2022-11-30T16:03:56.600Z,44.20
2022-11-30T16:06:28.165Z,32.00
2022-11-30T16:08:57.329Z,37.20
2022-11-30T16:11:25.847Z,37.90
2022-11-30T16:13:57.364Z,37.80
2022-11-30T16:16:31.115Z,43.60
2022-11-30T16:18:59.503Z,33.10
2022-11-30T16:21:28.552Z,29.80
2022-11-30T16:23:58.525Z,39.50
2022-11-30T16:29:15.846Z,66.10
2022-11-30T16:31:46.475Z,39.90
2022-11-30T16:34:14.609Z,40.40
2022-11-30T16:36:42.748Z,32.70
2022-11-30T16:39:13.439Z,36.40
2022-11-30T16:41:42.505Z,35.90
2022-11-30T16:44:14.486Z,41.80
2022-11-30T16:46:42.701Z,60.20
2022-11-30T16:49:11.185Z,43.60
2022-11-30T16:51:41.956Z,45.20
2022-11-30T16:54:16.723Z,48.90
2022-11-30T16:56:47.683Z,45.20
2022-11-30T16:59:16.975Z,41.10
2022-11-30T17:01:53.572Z,41.40
2022-11-30T17:04:23.279Z,46.10
2022-11-30T17:06:57.175Z,42.10
2022-11-30T17:09:31.146Z,37.30
2022-11-30T17:11:59.263Z,33.30
2022-11-30T17:14:28.135Z,37.90
2022-11-30T17:16:56.466Z,34.10
2022-11-30T17:19:27.553Z,33.30
2022-11-30T17:21:56.270Z,35.70
2022-11-30T17:24:24.647Z,31.00
2022-11-30T17:27:00.956Z,43.00
2022-11-30T17:29:30.968Z,32.40
2022-11-30T17:32:00.400Z,33.20
2022-11-30T17:34:28.557Z,31.40
2022-11-30T17:36:57.286Z,35.20
2022-11-30T17:39:26.535Z,29.80
2022-11-30T17:41:55.127Z,34.10
2022-11-30T17:44:25.986Z,34.60
2022-11-30T17:46:54.340Z,32.20
2022-11-30T17:49:23.686Z,34.70
2022-11-30T17:51:51.828Z,32.90
2022-11-30T17:54:21.568Z,35.40
2022-11-30T17:56:50.181Z,32.10
2022-11-30T17:59:19.481Z,31.40
2022-11-30T18:01:48.402Z,33.20
2022-11-30T18:04:18.733Z,31.30
2022-11-30T18:06:46.793Z,35.60
2022-11-30T18:09:14.971Z,30.00
2022-11-30T18:11:42.991Z,29.00
2022-11-30T18:14:11.653Z,31.20
2022-11-30T18:16:42.148Z,29.20
2022-11-30T18:19:14.801Z,32.80
2022-11-30T18:21:46.171Z,36.80
2022-11-30T18:24:14.515Z,35.20
2022-11-30T18:26:42.519Z,35.00
2022-11-30T18:29:11.179Z,36.50
2022-11-30T18:31:39.425Z,38.70
2022-11-30T18:34:07.763Z,37.90
2022-11-30T18:36:36.813Z,42.70
2022-11-30T18:39:05.539Z,33.40
2022-11-30T18:41:33.638Z,41.90
2022-11-30T18:44:01.739Z,38.10
2022-11-30T18:46:33.337Z,37.80
2022-11-30T18:49:04.154Z,43.70
2022-11-30T18:51:32.965Z,38.40
2022-11-30T18:54:05.112Z,39.00
2022-11-30T18:56:36.938Z,39.60
2022-11-30T18:59:09.102Z,41.20
2022-11-30T19:01:37.484Z,38.80
2022-11-30T19:04:08.676Z,38.90
2022-11-30T19:06:40.520Z,40.30
2022-11-30T19:09:12.173Z,37.10
2022-11-30T19:11:41.701Z,36.90
2022-11-30T19:14:14.247Z,37.30
2022-11-30T19:16:46.008Z,35.90
2022-11-30T19:19:15.489Z,38.70
2022-11-30T19:21:47.383Z,40.70
2022-11-30T19:24:17.474Z,40.90
2022-11-30T19:26:46.294Z,38.00
2022-11-30T19:29:15.160Z,42.60
2022-11-30T19:31:43.892Z,37.60
2022-11-30T19:34:13.161Z,37.70
2022-11-30T19:36:42.007Z,38.90
2022-11-30T19:39:11.280Z,37.60
2022-11-30T19:41:39.375Z,38.00
2022-11-30T19:44:13.524Z,38.20
2022-11-30T19:46:42.001Z,38.80
2022-11-30T19:49:11.732Z,39.00
2022-11-30T19:51:43.390Z,39.60
2022-11-30T19:54:11.600Z,37.50
2022-11-30T19:56:41.950Z,36.90
2022-11-30T19:59:10.497Z,38.60
2022-11-30T20:01:39.104Z,39.10
2022-11-30T20:04:07.444Z,39.30
2022-11-30T20:06:37.685Z,38.50
2022-11-30T20:09:10.430Z,37.20
2022-11-30T20:11:38.834Z,43.00
2022-11-30T20:14:07.181Z,41.00
2022-11-30T20:16:36.094Z,41.70
2022-11-30T20:19:04.332Z,38.60
2022-11-30T20:21:34.866Z,42.90
2022-11-30T20:24:06.928Z,44.70
2022-11-30T20:26:38.949Z,43.10
2022-11-30T20:29:15.136Z,41.80
2022-11-30T20:31:45.376Z,46.30
2022-11-30T20:34:17.219Z,44.10
2022-11-30T20:36:45.572Z,44.20
2022-11-30T20:39:15.212Z,44.50
2022-11-30T20:41:43.976Z,43.00
2022-11-30T20:44:16.524Z,41.00
2022-11-30T20:46:44.611Z,41.40
2022-11-30T20:49:17.775Z,37.10
2022-11-30T20:51:46.931Z,43.90
2022-11-30T20:54:16.631Z,40.20
2022-11-30T20:56:47.767Z,36.80
2022-11-30T20:59:23.735Z,39.70
2022-11-30T21:01:54.446Z,45.60
2022-11-30T21:04:24.728Z,43.80
2022-11-30T21:06:54.351Z,47.00
2022-11-30T21:09:22.547Z,40.00
2022-11-30T21:11:50.551Z,39.60
2022-11-30T21:14:18.653Z,44.00
2022-11-30T21:16:48.282Z,40.70
2022-11-30T21:19:16.783Z,40.40
2022-11-30T21:21:45.001Z,42.40
2022-11-30T21:24:13.114Z,46.60
2022-11-30T21:26:43.451Z,45.30
2022-11-30T21:29:14.419Z,45.80
2022-11-30T21:31:43.354Z,67.20
2022-11-30T21:34:12.267Z,70.50
2022-11-30T21:36:40.827Z,69.30
2022-11-30T21:39:09.088Z,65.50
2022-11-30T21:41:39.359Z,68.50
2022-11-30T21:44:10.621Z,76.30
2022-11-30T21:46:40.272Z,84.60
2022-11-30T21:49:10.115Z,78.30
2022-11-30T21:51:38.338Z,87.50
2022-11-30T21:54:10.028Z,78.90
2022-11-30T21:56:40.592Z,79.30
2022-11-30T21:59:09.896Z,80.50
2022-11-30T22:01:42.707Z,76.50
2022-11-30T22:04:12.310Z,77.00
2022-11-30T22:06:43.389Z,79.70
2022-11-30T22:09:14.344Z,78.00
2022-11-30T22:11:45.111Z,75.30
2022-11-30T22:14:16.051Z,68.60
2022-11-30T22:16:45.033Z,76.00
2022-11-30T22:19:15.496Z,74.00
2022-11-30T22:21:49.425Z,83.70
2022-11-30T22:24:18.642Z,74.90
2022-11-30T22:26:49.313Z,75.70
2022-11-30T22:29:22.559Z,69.10
2022-11-30T22:31:53.370Z,64.00
2022-11-30T22:34:21.480Z,62.10
2022-11-30T22:36:50.693Z,54.80
2022-11-30T22:39:21.398Z,55.40
2022-11-30T22:41:55.251Z,53.40
2022-11-30T22:44:25.749Z,47.20
2022-11-30T22:46:53.884Z,53.80
2022-11-30T22:49:22.367Z,53.30
2022-11-30T22:51:51.138Z,44.40
2022-11-30T22:54:19.270Z,47.30
2022-11-30T22:56:47.401Z,49.80
2022-11-30T22:59:15.929Z,49.40
2022-11-30T23:01:49.608Z,43.20
2022-11-30T23:04:20.422Z,46.20
2022-11-30T23:06:49.877Z,43.30
2022-11-30T23:09:21.765Z,42.80
2022-11-30T23:11:51.315Z,44.40
2022-11-30T23:14:20.001Z,41.00
2022-11-30T23:16:48.255Z,41.70
2022-11-30T23:19:16.700Z,47.60
2022-11-30T23:21:46.010Z,40.10
2022-11-30T23:24:20.307Z,41.20
2022-11-30T23:26:49.441Z,43.70
2022-11-30T23:29:18.172Z,40.00
2022-11-30T23:31:47.864Z,38.30
2022-11-30T23:34:21.394Z,40.40
2022-11-30T23:36:50.998Z,39.10
2022-11-30T23:39:19.939Z,40.30
2022-11-30T23:41:49.082Z,37.20
2022-11-30T23:44:17.343Z,38.10
2022-11-30T23:46:45.548Z,59.60
2022-11-30T23:49:14.388Z,65.40
2022-11-30T23:51:43.214Z,72.20
2022-11-30T23:54:11.403Z,66.70
2022-11-30T23:56:39.613Z,68.10
2022-11-30T23:59:07.826Z,70.00
